Time;durP1;ratioP1;P1;durP2;ratioP2;P2;SDS_P1;SDS_P2;PMS_P1;PMS_P2;Temp;Humidity;BMP_temperature;BMP_pressure;BME280_temperature;BME280_humidity;BME280_pressure;Samples;Min_cycle;Max_cycle;Signal;HPM_P1;HPM_P2
2022/03/31 00:01:11;;;;;;;6.88;2.47;;;;;;;;;;5122994;27;20176;-60
2022/03/31 00:03:37;;;;;;;3.63;1.73;;;;;;;;;;5134745;27;20064;-60
2022/03/31 00:06:03;;;;;;;2.47;1.58;;;;;;;;;;5126192;27;20078;-60
2022/03/31 00:08:29;;;;;;;2.83;1.52;;;;;;;;;;5115741;27;20224;-60
2022/03/31 00:10:55;;;;;;;6.13;1.50;;;;;;;;;;5110328;28;20485;-60
2022/03/31 00:13:23;;;;;;;7.40;1.70;;;;;;;;;;5128304;27;20074;-60
2022/03/31 00:15:50;;;;;;;4.53;1.50;;;;;;;;;;5130238;27;20042;-59
2022/03/31 00:18:16;;;;;;;4.22;1.67;;;;;;;;;;5126440;27;20040;-60
2022/03/31 00:32:57;;;;;;;4.97;2.08;;;;;;;;;;5110588;27;20048;-60
2022/03/31 00:35:23;;;;;;;4.80;1.40;;;;;;;;;;5117116;27;20044;-60
2022/03/31 00:37:49;;;;;;;4.18;1.45;;;;;;;;;;5118059;27;20364;-60
2022/03/31 00:40:18;;;;;;;3.53;1.67;;;;;;;;;;5107219;28;20047;-60
2022/03/31 00:42:49;;;;;;;3.33;1.48;;;;;;;;;;5113787;28;20508;-59
2022/03/31 00:45:16;;;;;;;3.53;1.35;;;;;;;;;;5121150;27;20065;-60
2022/03/31 00:47:43;;;;;;;4.05;1.27;;;;;;;;;;5125403;27;20400;-59
2022/03/31 00:50:10;;;;;;;3.15;1.30;;;;;;;;;;5109591;27;20035;-60
2022/03/31 00:52:37;;;;;;;3.90;1.40;;;;;;;;;;5114380;27;20132;-60
2022/03/31 00:55:03;;;;;;;3.78;1.52;;;;;;;;;;5122705;27;20695;-60
2022/03/31 00:57:29;;;;;;;2.90;1.25;;;;;;;;;;5120354;27;20032;-60
2022/03/31 00:59:57;;;;;;;2.65;1.20;;;;;;;;;;5106678;27;20036;-61
2022/03/31 01:02:23;;;;;;;2.70;1.30;;;;;;;;;;5113168;28;20035;-60
2022/03/31 01:04:51;;;;;;;5.35;1.30;;;;;;;;;;5113403;27;20040;-60
2022/03/31 01:07:17;;;;;;;2.65;1.60;;;;;;;;;;5102989;27;20053;-61
2022/03/31 01:09:43;;;;;;;3.47;1.45;;;;;;;;;;5116995;27;20078;-60
2022/03/31 01:12:09;;;;;;;1.70;1.50;;;;;;;;;;5116549;27;20552;-60
2022/03/31 01:14:35;;;;;;;2.53;1.27;;;;;;;;;;5112898;27;20131;-60
2022/03/31 01:17:02;;;;;;;5.25;1.65;;;;;;;;;;5092191;28;20096;-60
2022/03/31 01:19:28;;;;;;;5.25;2.05;;;;;;;;;;5111124;27;20032;-60
2022/03/31 01:21:54;;;;;;;8.70;2.30;;;;;;;;;;5114340;27;20032;-60
2022/03/31 01:24:20;;;;;;;7.47;2.40;;;;;;;;;;5122415;27;20130;-61
2022/03/31 01:26:47;;;;;;;8.15;2.47;;;;;;;;;;5132049;27;20382;-60
2022/03/31 01:29:16;;;;;;;5.63;2.38;;;;;;;;;;5107977;28;20102;-60
2022/03/31 01:31:42;;;;;;;8.48;3.30;;;;;;;;;;5111604;27;20044;-60
2022/03/31 01:34:09;;;;;;;6.47;2.90;;;;;;;;;;5132989;27;20083;-60
2022/03/31 01:36:35;;;;;;;7.10;2.80;;;;;;;;;;5132933;27;20042;-60
2022/03/31 01:39:01;;;;;;;6.18;3.20;;;;;;;;;;5120027;27;20069;-60
2022/03/31 01:41:27;;;;;;;5.85;3.17;;;;;;;;;;5104688;28;20160;-60
2022/03/31 01:43:53;;;;;;;7.10;3.42;;;;;;;;;;5112392;28;20043;-60
2022/03/31 01:46:19;;;;;;;7.28;3.58;;;;;;;;;;5112385;28;20040;-59
2022/03/31 01:48:46;;;;;;;7.65;3.63;;;;;;;;;;5125564;27;20118;-60
2022/03/31 01:51:12;;;;;;;7.55;4.07;;;;;;;;;;5110552;28;20036;-60
2022/03/31 01:53:39;;;;;;;8.00;3.78;;;;;;;;;;5108145;28;20050;-60
2022/03/31 01:56:06;;;;;;;8.18;3.47;;;;;;;;;;5106857;28;20397;-60
2022/03/31 01:58:32;;;;;;;5.18;2.90;;;;;;;;;;5115131;27;20040;-60
2022/03/31 02:00:59;;;;;;;7.78;3.67;;;;;;;;;;5085307;28;20123;-60
2022/03/31 02:03:25;;;;;;;6.28;3.63;;;;;;;;;;5112169;27;20035;-60
2022/03/31 02:05:51;;;;;;;9.50;3.90;;;;;;;;;;5109098;28;20028;-60
2022/03/31 02:08:18;;;;;;;7.95;3.45;;;;;;;;;;5111583;27;20036;-60
2022/03/31 02:10:44;;;;;;;6.30;3.25;;;;;;;;;;5109010;27;20516;-60
2022/03/31 02:13:10;;;;;;;8.52;3.35;;;;;;;;;;5112190;28;20046;-60
2022/03/31 02:15:36;;;;;;;3.97;2.88;;;;;;;;;;5112413;28;20035;-60
2022/03/31 02:18:03;;;;;;;6.80;3.45;;;;;;;;;;5111478;28;20618;-60
2022/03/31 02:20:30;;;;;;;9.02;3.90;;;;;;;;;;5103940;28;20042;-60
2022/03/31 02:22:59;;;;;;;7.38;3.88;;;;;;;;;;5111209;28;20060;-60
2022/03/31 02:25:25;;;;;;;7.75;3.42;;;;;;;;;;5109901;28;20545;-60
2022/03/31 02:27:55;;;;;;;7.57;3.58;;;;;;;;;;5109988;28;20119;-60
2022/03/31 02:30:21;;;;;;;4.00;2.70;;;;;;;;;;5114421;28;20476;-60
2022/03/31 02:32:48;;;;;;;4.45;2.67;;;;;;;;;;5111692;28;20488;-61
2022/03/31 02:35:14;;;;;;;8.25;3.40;;;;;;;;;;5115976;28;20040;-60
2022/03/31 02:37:40;;;;;;;5.25;3.38;;;;;;;;;;5111720;28;20488;-61
2022/03/31 02:40:06;;;;;;;4.32;3.13;;;;;;;;;;5093039;28;20100;-61
2022/03/31 02:42:34;;;;;;;7.60;3.72;;;;;;;;;;5108630;28;20104;-61
2022/03/31 02:45:01;;;;;;;6.65;3.50;;;;;;;;;;5105733;27;20413;-61
2022/03/31 02:47:27;;;;;;;6.18;3.40;;;;;;;;;;5093312;28;20130;-60
2022/03/31 02:49:53;;;;;;;7.00;3.90;;;;;;;;;;5105986;28;20050;-60
2022/03/31 02:52:19;;;;;;;8.70;4.10;;;;;;;;;;5088612;28;20055;-60
2022/03/31 02:58:03;;;;;;;6.88;3.85;;;;;;;;;;5111337;28;20031;-60
2022/03/31 03:00:30;;;;;;;7.18;4.05;;;;;;;;;;5110398;28;20035;-60
2022/03/31 03:02:57;;;;;;;6.28;4.10;;;;;;;;;;5105031;28;20506;-60
2022/03/31 03:05:23;;;;;;;7.82;4.75;;;;;;;;;;5101670;28;20044;-60
2022/03/31 03:07:49;;;;;;;8.00;5.18;;;;;;;;;;5109089;28;20039;-60
2022/03/31 03:10:15;;;;;;;6.03;4.32;;;;;;;;;;5103545;28;20667;-60
2022/03/31 03:12:41;;;;;;;7.28;4.78;;;;;;;;;;5101525;28;20374;-60
2022/03/31 03:15:08;;;;;;;8.57;4.95;;;;;;;;;;5099334;28;20038;-60
2022/03/31 03:17:35;;;;;;;8.82;4.30;;;;;;;;;;5106825;28;20044;-60
2022/03/31 03:20:01;;;;;;;9.70;5.50;;;;;;;;;;5107452;28;20028;-60
2022/03/31 03:22:27;;;;;;;9.98;5.95;;;;;;;;;;5107595;27;20032;-60
2022/03/31 03:24:53;;;;;;;8.07;5.25;;;;;;;;;;5114009;27;20044;-60
2022/03/31 03:27:19;;;;;;;9.85;6.25;;;;;;;;;;5120062;27;20047;-60
2022/03/31 03:29:46;;;;;;;9.55;5.95;;;;;;;;;;5103427;27;20425;-60
2022/03/31 03:32:13;;;;;;;10.77;5.13;;;;;;;;;;5105439;28;20358;-60
2022/03/31 03:34:39;;;;;;;10.38;6.50;;;;;;;;;;5112501;28;20452;-60
2022/03/31 03:37:06;;;;;;;8.82;5.47;;;;;;;;;;5111516;28;20040;-61
2022/03/31 03:39:33;;;;;;;10.85;6.70;;;;;;;;;;5109031;28;20040;-60
2022/03/31 03:41:59;;;;;;;12.88;6.75;;;;;;;;;;5107306;27;20057;-60
2022/03/31 03:44:25;;;;;;;7.80;5.47;;;;;;;;;;5094620;28;20116;-60
2022/03/31 03:46:51;;;;;;;9.77;6.65;;;;;;;;;;5094512;28;20122;-60
2022/03/31 03:49:18;;;;;;;9.63;6.70;;;;;;;;;;5097360;27;20040;-60
2022/03/31 03:51:44;;;;;;;8.85;6.28;;;;;;;;;;5099822;27;20050;-60
2022/03/31 03:54:11;;;;;;;9.35;6.57;;;;;;;;;;5104495;27;20052;-60
2022/03/31 03:56:37;;;;;;;10.68;7.35;;;;;;;;;;5108609;27;20031;-59
2022/03/31 03:59:04;;;;;;;9.55;6.60;;;;;;;;;;5105362;27;20024;-59
2022/03/31 04:01:30;;;;;;;10.30;6.95;;;;;;;;;;5113063;27;20063;-60
2022/03/31 04:03:57;;;;;;;10.55;6.72;;;;;;;;;;5109763;28;20042;-60
2022/03/31 04:06:23;;;;;;;9.35;6.25;;;;;;;;;;5082753;28;20542;-60
2022/03/31 04:08:49;;;;;;;10.85;7.53;;;;;;;;;;5097354;27;20054;-60
2022/03/31 04:11:16;;;;;;;11.70;7.32;;;;;;;;;;5109259;28;20044;-60
2022/03/31 04:13:42;;;;;;;11.00;7.13;;;;;;;;;;5114211;28;20493;-60
2022/03/31 04:16:08;;;;;;;10.57;7.65;;;;;;;;;;5114360;28;20043;-60
2022/03/31 04:18:34;;;;;;;11.32;7.07;;;;;;;;;;5114155;27;20373;-60
2022/03/31 04:21:02;;;;;;;9.95;7.00;;;;;;;;;;5106999;27;20034;-60
2022/03/31 04:23:28;;;;;;;11.15;7.80;;;;;;;;;;5108200;28;20036;-59
2022/03/31 04:25:54;;;;;;;9.68;7.95;;;;;;;;;;5106639;27;20035;-60
2022/03/31 04:28:20;;;;;;;10.93;7.13;;;;;;;;;;5110684;27;20039;-60
2022/03/31 04:30:46;;;;;;;9.32;7.18;;;;;;;;;;5109313;27;20073;-60
2022/03/31 04:33:12;;;;;;;10.52;6.90;;;;;;;;;;5111527;27;20074;-59
2022/03/31 04:35:38;;;;;;;11.55;8.35;;;;;;;;;;5114289;27;20397;-60
2022/03/31 04:38:04;;;;;;;10.18;7.28;;;;;;;;;;5111815;27;20051;-60
2022/03/31 04:40:30;;;;;;;10.27;7.22;;;;;;;;;;5105776;27;20037;-60
2022/03/31 04:42:56;;;;;;;7.80;5.38;;;;;;;;;;5107547;27;20039;-60
2022/03/31 04:45:22;;;;;;;11.38;8.05;;;;;;;;;;5112326;28;20051;-60
2022/03/31 04:47:48;;;;;;;10.80;7.78;;;;;;;;;;5111628;28;20043;-60
2022/03/31 04:50:15;;;;;;;8.80;6.70;;;;;;;;;;5110394;27;20405;-60
2022/03/31 04:52:42;;;;;;;11.43;7.43;;;;;;;;;;5114898;27;20521;-60
2022/03/31 04:55:08;;;;;;;10.13;7.72;;;;;;;;;;5104302;27;20043;-59
2022/03/31 04:57:34;;;;;;;9.80;7.80;;;;;;;;;;5110705;27;20061;-60
2022/03/31 05:00:00;;;;;;;11.95;8.27;;;;;;;;;;5108375;27;20510;-60
2022/03/31 05:02:26;;;;;;;9.82;6.30;;;;;;;;;;5103739;28;20035;-60
2022/03/31 05:04:52;;;;;;;8.45;6.45;;;;;;;;;;5112979;27;20041;-60
2022/03/31 05:07:18;;;;;;;7.80;5.78;;;;;;;;;;5105892;28;20042;-60
2022/03/31 05:09:45;;;;;;;9.02;7.10;;;;;;;;;;5108178;27;20043;-60
2022/03/31 05:12:12;;;;;;;7.60;5.55;;;;;;;;;;5109074;27;20058;-60
2022/03/31 05:14:38;;;;;;;9.95;6.90;;;;;;;;;;5109577;28;20541;-60
2022/03/31 05:17:05;;;;;;;8.18;6.50;;;;;;;;;;5098606;27;20401;-60
2022/03/31 05:19:31;;;;;;;9.85;7.13;;;;;;;;;;5110974;27;20498;-60
2022/03/31 05:21:57;;;;;;;8.63;6.43;;;;;;;;;;5112251;28;20043;-60
2022/03/31 05:24:23;;;;;;;9.10;6.70;;;;;;;;;;5116069;27;20047;-60
2022/03/31 05:26:52;;;;;;;10.82;7.18;;;;;;;;;;5105954;28;20492;-60
2022/03/31 05:29:18;;;;;;;9.43;7.03;;;;;;;;;;5105061;27;20040;-60
2022/03/31 05:31:44;;;;;;;10.90;8.02;;;;;;;;;;5108324;27;20035;-60
2022/03/31 05:34:10;;;;;;;11.18;8.02;;;;;;;;;;5105148;27;20058;-60
2022/03/31 05:36:36;;;;;;;10.88;7.70;;;;;;;;;;5106266;27;20031;-60
2022/03/31 05:39:03;;;;;;;10.10;7.38;;;;;;;;;;5111557;27;20035;-59
2022/03/31 05:41:29;;;;;;;8.77;6.35;;;;;;;;;;5108599;27;20443;-60
2022/03/31 05:43:55;;;;;;;10.57;7.45;;;;;;;;;;5110545;28;20043;-60
2022/03/31 05:46:22;;;;;;;10.23;7.43;;;;;;;;;;5109795;27;20371;-60
2022/03/31 05:48:48;;;;;;;10.55;7.75;;;;;;;;;;5110921;27;20047;-60
2022/03/31 05:51:14;;;;;;;10.18;7.03;;;;;;;;;;5110661;27;20415;-60
2022/03/31 05:53:40;;;;;;;10.27;6.78;;;;;;;;;;5105679;27;20043;-60
2022/03/31 05:56:07;;;;;;;10.77;7.57;;;;;;;;;;5100996;27;20032;-60
2022/03/31 05:58:33;;;;;;;10.00;7.43;;;;;;;;;;5112032;28;20101;-60
2022/03/31 06:00:59;;;;;;;10.35;7.60;;;;;;;;;;5107334;27;20032;-60
2022/03/31 06:03:25;;;;;;;10.73;7.78;;;;;;;;;;5105657;27;20036;-60
2022/03/31 06:05:52;;;;;;;11.48;8.60;;;;;;;;;;5107297;28;20462;-60
2022/03/31 06:08:18;;;;;;;11.10;7.88;;;;;;;;;;5107557;28;20055;-59
2022/03/31 06:10:44;;;;;;;9.15;6.63;;;;;;;;;;5102483;28;20122;-60
2022/03/31 06:13:10;;;;;;;12.07;9.20;;;;;;;;;;5108055;28;20504;-59
2022/03/31 06:15:37;;;;;;;11.15;7.95;;;;;;;;;;5106488;28;20446;-60
2022/03/31 06:18:04;;;;;;;12.38;8.45;;;;;;;;;;5095936;28;20128;-60
2022/03/31 06:20:31;;;;;;;11.45;8.30;;;;;;;;;;5117517;27;20061;-60
2022/03/31 06:22:57;;;;;;;13.10;9.00;;;;;;;;;;5107944;27;20089;-60
2022/03/31 06:25:23;;;;;;;12.45;8.57;;;;;;;;;;5109588;28;20052;-60
2022/03/31 06:27:50;;;;;;;12.88;9.32;;;;;;;;;;5110508;28;20119;-60
2022/03/31 06:30:16;;;;;;;12.35;9.55;;;;;;;;;;5107064;27;20136;-60
2022/03/31 06:32:42;;;;;;;13.07;8.73;;;;;;;;;;5107292;28;20071;-60
2022/03/31 06:35:14;;;;;;;11.95;8.35;;;;;;;;;;5108860;28;20089;-60
2022/03/31 06:37:40;;;;;;;12.05;8.57;;;;;;;;;;5108081;28;20036;-60
2022/03/31 06:40:06;;;;;;;12.18;8.15;;;;;;;;;;5104562;28;20043;-60
2022/03/31 06:42:32;;;;;;;11.38;8.38;;;;;;;;;;5110209;28;20046;-60
2022/03/31 06:44:58;;;;;;;11.80;8.77;;;;;;;;;;5109229;28;20038;-60
2022/03/31 06:47:24;;;;;;;11.27;8.43;;;;;;;;;;5093025;28;20553;-60
2022/03/31 06:49:50;;;;;;;13.00;9.57;;;;;;;;;;5107952;28;20039;-60
2022/03/31 06:52:16;;;;;;;12.60;9.25;;;;;;;;;;5107552;28;20040;-60
2022/03/31 06:54:42;;;;;;;12.48;9.43;;;;;;;;;;5111706;28;20118;-61
2022/03/31 06:57:09;;;;;;;13.07;9.43;;;;;;;;;;5113605;28;20028;-61
2022/03/31 06:59:35;;;;;;;13.55;9.18;;;;;;;;;;5103178;28;20064;-61
2022/03/31 07:02:01;;;;;;;14.65;9.02;;;;;;;;;;5113620;28;20039;-60
2022/03/31 07:04:27;;;;;;;13.90;10.05;;;;;;;;;;5119519;27;20058;-61
2022/03/31 07:06:53;;;;;;;14.70;9.52;;;;;;;;;;5120872;27;20035;-60
2022/03/31 07:09:19;;;;;;;14.45;9.88;;;;;;;;;;5115447;27;20046;-60
2022/03/31 07:11:45;;;;;;;15.95;10.68;;;;;;;;;;5111535;27;20564;-61
2022/03/31 07:14:11;;;;;;;15.70;9.68;;;;;;;;;;5086484;28;20143;-60
2022/03/31 07:16:37;;;;;;;17.02;11.23;;;;;;;;;;5111498;27;20023;-61
2022/03/31 07:19:03;;;;;;;14.85;10.57;;;;;;;;;;5106787;28;20032;-61
2022/03/31 07:21:30;;;;;;;16.63;11.40;;;;;;;;;;5114880;28;20027;-61
2022/03/31 07:23:56;;;;;;;19.42;12.30;;;;;;;;;;5115111;28;20078;-61
2022/03/31 07:26:24;;;;;;;18.30;11.35;;;;;;;;;;5112226;27;20089;-61
2022/03/31 07:28:50;;;;;;;18.98;11.82;;;;;;;;;;5110000;28;20054;-60
2022/03/31 07:31:16;;;;;;;17.35;11.25;;;;;;;;;;5097851;28;20122;-60
2022/03/31 07:33:42;;;;;;;18.35;12.27;;;;;;;;;;5108753;28;20041;-61
2022/03/31 07:36:09;;;;;;;17.35;10.98;;;;;;;;;;5110815;27;20027;-61
2022/03/31 07:38:35;;;;;;;18.45;12.13;;;;;;;;;;5112602;27;20420;-61
2022/03/31 07:41:01;;;;;;;18.63;12.10;;;;;;;;;;5116083;27;20028;-61
2022/03/31 07:43:27;;;;;;;16.58;11.73;;;;;;;;;;5110891;27;20032;-60
2022/03/31 07:45:54;;;;;;;22.60;14.38;;;;;;;;;;5114680;27;20035;-60
2022/03/31 07:48:20;;;;;;;17.52;12.25;;;;;;;;;;5113753;27;20043;-60
2022/03/31 07:50:46;;;;;;;21.45;13.32;;;;;;;;;;5112643;27;20401;-60
2022/03/31 07:53:13;;;;;;;21.05;13.60;;;;;;;;;;5114381;27;20043;-61
2022/03/31 07:55:39;;;;;;;16.05;10.45;;;;;;;;;;5114685;27;20032;-60
2022/03/31 07:58:05;;;;;;;19.70;12.18;;;;;;;;;;5118241;27;20035;-61
2022/03/31 08:00:31;;;;;;;17.60;10.80;;;;;;;;;;5117174;27;20036;-61
2022/03/31 08:02:58;;;;;;;20.35;13.27;;;;;;;;;;5120269;27;20030;-61
2022/03/31 08:05:27;;;;;;;19.73;13.40;;;;;;;;;;5127240;27;20078;-61
2022/03/31 08:07:53;;;;;;;19.15;12.68;;;;;;;;;;5106753;27;20043;-60
2022/03/31 08:10:22;;;;;;;20.27;12.18;;;;;;;;;;5115851;27;20035;-61
2022/03/31 08:12:48;;;;;;;19.38;11.93;;;;;;;;;;5115297;27;20055;-60
2022/03/31 08:15:15;;;;;;;17.67;10.95;;;;;;;;;;5115520;27;20051;-61
2022/03/31 08:17:41;;;;;;;20.35;12.60;;;;;;;;;;5114049;28;20050;-61
2022/03/31 08:20:09;;;;;;;25.38;14.98;;;;;;;;;;5106236;27;20036;-61
2022/03/31 08:22:35;;;;;;;21.30;13.50;;;;;;;;;;5125226;27;20035;-60
2022/03/31 08:25:02;;;;;;;22.13;14.15;;;;;;;;;;5126675;27;20046;-60
2022/03/31 08:27:28;;;;;;;24.60;15.48;;;;;;;;;;5134844;27;20043;-60
2022/03/31 08:29:55;;;;;;;22.83;14.68;;;;;;;;;;5123887;27;20870;-61
2022/03/31 08:32:21;;;;;;;23.35;13.45;;;;;;;;;;5107294;27;20110;-60
2022/03/31 08:34:47;;;;;;;22.20;12.65;;;;;;;;;;5102253;27;20131;-60
2022/03/31 08:37:14;;;;;;;24.23;14.80;;;;;;;;;;5113638;28;20054;-61
2022/03/31 08:39:40;;;;;;;23.55;14.75;;;;;;;;;;5115970;27;20090;-60
2022/03/31 08:42:06;;;;;;;22.77;13.98;;;;;;;;;;5097345;28;20493;-60
2022/03/31 08:44:33;;;;;;;21.02;12.00;;;;;;;;;;5113683;28;20554;-61
2022/03/31 08:46:59;;;;;;;20.90;14.27;;;;;;;;;;5122067;27;20186;-61
2022/03/31 08:49:25;;;;;;;21.60;13.13;;;;;;;;;;5109913;27;20416;-61
2022/03/31 08:51:52;;;;;;;19.40;12.73;;;;;;;;;;5095299;28;20043;-61
2022/03/31 08:54:18;;;;;;;15.75;9.23;;;;;;;;;;5115868;27;20039;-60
2022/03/31 08:56:44;;;;;;;18.58;12.13;;;;;;;;;;5113455;28;20039;-61
2022/03/31 08:59:10;;;;;;;17.38;11.98;;;;;;;;;;5107863;27;20036;-61
2022/03/31 09:01:39;;;;;;;17.40;11.45;;;;;;;;;;5114658;27;20043;-60
2022/03/31 09:04:05;;;;;;;18.90;11.45;;;;;;;;;;5095572;28;20601;-61
2022/03/31 09:06:31;;;;;;;18.35;11.57;;;;;;;;;;5103237;28;20046;-61
2022/03/31 09:09:01;;;;;;;16.02;10.40;;;;;;;;;;5107408;28;20036;-60
2022/03/31 09:11:29;;;;;;;15.10;9.90;;;;;;;;;;5101725;27;20027;-60
2022/03/31 09:13:56;;;;;;;13.05;8.75;;;;;;;;;;5096378;28;20142;-60
2022/03/31 09:16:29;;;;;;;11.27;8.18;;;;;;;;;;5094844;27;20036;-61
2022/03/31 09:19:00;;;;;;;11.90;7.88;;;;;;;;;;5100436;28;20036;-60
2022/03/31 09:21:25;;;;;;;10.98;7.68;;;;;;;;;;5111206;28;20439;-60
2022/03/31 09:23:52;;;;;;;8.70;6.03;;;;;;;;;;5110108;27;20024;-60
2022/03/31 09:26:18;;;;;;;5.60;4.45;;;;;;;;;;5107477;28;20093;-60
2022/03/31 09:28:45;;;;;;;6.28;4.80;;;;;;;;;;5095850;27;20041;-59
2022/03/31 09:31:12;;;;;;;6.55;4.43;;;;;;;;;;5103285;28;20070;-60
2022/03/31 09:33:44;;;;;;;5.78;4.00;;;;;;;;;;5104215;27;20078;-60
2022/03/31 09:36:15;;;;;;;7.00;5.10;;;;;;;;;;5084721;28;20048;-60
2022/03/31 09:38:45;;;;;;;7.20;5.15;;;;;;;;;;5111430;27;20096;-60
2022/03/31 09:41:18;;;;;;;5.15;4.03;;;;;;;;;;5110682;28;20046;-60
2022/03/31 09:43:44;;;;;;;7.97;4.97;;;;;;;;;;5102804;27;20038;-61
2022/03/31 09:46:25;;;;;;;5.03;4.00;;;;;;;;;;5103414;28;20040;-61
2022/03/31 09:48:52;;;;;;;6.07;4.70;;;;;;;;;;5117439;27;20046;-61
2022/03/31 09:51:19;;;;;;;4.68;3.40;;;;;;;;;;5120630;27;20039;-61
2022/03/31 09:53:46;;;;;;;5.18;4.68;;;;;;;;;;5094175;28;20032;-61
2022/03/31 09:56:14;;;;;;;6.38;4.28;;;;;;;;;;5091906;28;20046;-61
2022/03/31 09:58:43;;;;;;;5.78;3.67;;;;;;;;;;5098022;27;21564;-61
2022/03/31 10:01:09;;;;;;;6.75;4.68;;;;;;;;;;5109993;27;20063;-61
2022/03/31 10:03:38;;;;;;;5.55;4.05;;;;;;;;;;5097847;28;20043;-61
2022/03/31 10:06:05;;;;;;;6.53;4.38;;;;;;;;;;5103745;28;20039;-61
2022/03/31 10:08:38;;;;;;;6.70;4.43;;;;;;;;;;5108574;28;20048;-61
2022/03/31 10:11:05;;;;;;;5.13;4.07;;;;;;;;;;5106665;27;20040;-61
2022/03/31 10:13:36;;;;;;;4.80;3.92;;;;;;;;;;5114542;27;20043;-61
2022/03/31 10:16:13;;;;;;;6.90;4.22;;;;;;;;;;5104037;27;20477;-61
2022/03/31 10:18:42;;;;;;;4.60;3.92;;;;;;;;;;5113012;27;20084;-60
2022/03/31 10:21:08;;;;;;;5.78;4.28;;;;;;;;;;5092427;27;20080;-60
2022/03/31 10:26:27;;;;;;;5.30;4.03;;;;;;;;;;5107617;27;20051;-60
2022/03/31 10:28:57;;;;;;;3.80;3.03;;;;;;;;;;5106275;28;20043;-61
2022/03/31 10:31:33;;;;;;;4.55;3.80;;;;;;;;;;5102883;28;20047;-61
2022/03/31 10:33:59;;;;;;;4.22;3.47;;;;;;;;;;5112002;28;20047;-61
2022/03/31 10:36:34;;;;;;;5.45;3.60;;;;;;;;;;5124553;27;20040;-60
2022/03/31 10:39:02;;;;;;;4.65;3.70;;;;;;;;;;5116277;28;20101;-60
2022/03/31 10:41:32;;;;;;;3.63;2.97;;;;;;;;;;5112817;28;20043;-60
2022/03/31 10:43:58;;;;;;;3.05;2.75;;;;;;;;;;5095163;28;20035;-60
2022/03/31 10:46:25;;;;;;;4.93;3.55;;;;;;;;;;5107716;28;20046;-61
2022/03/31 10:48:52;;;;;;;3.78;3.33;;;;;;;;;;5108181;28;20407;-60
2022/03/31 10:51:18;;;;;;;4.53;3.50;;;;;;;;;;5110864;28;20039;-61
2022/03/31 10:53:50;;;;;;;6.72;3.90;;;;;;;;;;5073078;28;20036;-60
2022/03/31 10:56:19;;;;;;;3.58;3.17;;;;;;;;;;5095890;28;20272;-61
2022/03/31 10:58:45;;;;;;;4.78;3.15;;;;;;;;;;5106778;28;20520;-61
2022/03/31 11:01:11;;;;;;;4.47;3.28;;;;;;;;;;5114544;28;20081;-61
2022/03/31 11:03:37;;;;;;;4.05;3.25;;;;;;;;;;5114205;28;20028;-61
2022/03/31 11:06:10;;;;;;;4.00;3.25;;;;;;;;;;5121203;28;20035;-61
2022/03/31 11:08:47;;;;;;;3.78;2.90;;;;;;;;;;5128837;27;20057;-61
2022/03/31 11:11:23;;;;;;;3.35;3.00;;;;;;;;;;5095392;28;20115;-61
2022/03/31 11:13:50;;;;;;;4.57;3.42;;;;;;;;;;5106095;28;20035;-61
2022/03/31 11:16:16;;;;;;;4.43;2.92;;;;;;;;;;5107217;28;20067;-61
2022/03/31 11:18:43;;;;;;;3.97;3.42;;;;;;;;;;5092875;28;20058;-61
2022/03/31 11:21:10;;;;;;;3.80;3.35;;;;;;;;;;5108326;28;20114;-61
2022/03/31 11:23:45;;;;;;;4.28;3.05;;;;;;;;;;5109606;28;20047;-61
2022/03/31 11:26:11;;;;;;;4.88;3.80;;;;;;;;;;5089544;28;20126;-61
2022/03/31 11:28:37;;;;;;;4.68;3.90;;;;;;;;;;5089412;28;20313;-60
2022/03/31 11:31:11;;;;;;;5.88;4.57;;;;;;;;;;5107722;28;20036;-61
2022/03/31 11:33:37;;;;;;;3.35;3.05;;;;;;;;;;5109946;28;20593;-60
2022/03/31 11:36:03;;;;;;;5.20;4.00;;;;;;;;;;5107290;28;20074;-60
2022/03/31 11:38:29;;;;;;;7.50;5.38;;;;;;;;;;5107710;28;20124;-60
2022/03/31 11:40:56;;;;;;;7.85;5.57;;;;;;;;;;5110552;28;20073;-61
2022/03/31 11:43:22;;;;;;;7.93;5.55;;;;;;;;;;5113573;28;20481;-61
2022/03/31 11:45:50;;;;;;;5.97;4.22;;;;;;;;;;5110357;27;20458;-60
2022/03/31 11:48:17;;;;;;;7.45;5.75;;;;;;;;;;5113180;28;20043;-60
2022/03/31 11:50:53;;;;;;;10.00;6.00;;;;;;;;;;5109447;27;20039;-60
2022/03/31 11:53:20;;;;;;;7.32;4.88;;;;;;;;;;5112514;27;20054;-60
2022/03/31 11:55:56;;;;;;;7.43;5.30;;;;;;;;;;5126315;22;20035;-62
2022/03/31 11:58:22;;;;;;;9.55;6.93;;;;;;;;;;5090632;28;20397;-61
2022/03/31 12:00:50;;;;;;;8.32;6.45;;;;;;;;;;5080200;28;20041;-62
2022/03/31 12:03:17;;;;;;;7.38;5.78;;;;;;;;;;5090064;28;20043;-61
2022/03/31 12:05:43;;;;;;;10.68;7.88;;;;;;;;;;5083468;28;20040;-62
2022/03/31 12:08:09;;;;;;;11.05;8.05;;;;;;;;;;5073487;28;20044;-62
2022/03/31 12:10:35;;;;;;;10.10;6.45;;;;;;;;;;5068092;28;20399;-61
2022/03/31 12:13:01;;;;;;;11.90;8.27;;;;;;;;;;5070515;28;20103;-62
2022/03/31 12:15:29;;;;;;;12.75;8.60;;;;;;;;;;5072057;28;20039;-62
2022/03/31 12:18:01;;;;;;;14.88;8.77;;;;;;;;;;5071510;28;20118;-62
2022/03/31 12:20:27;;;;;;;13.23;8.02;;;;;;;;;;5071723;28;20044;-62
2022/03/31 12:22:54;;;;;;;16.23;10.13;;;;;;;;;;5073645;28;20044;-61
2022/03/31 12:25:26;;;;;;;16.90;9.75;;;;;;;;;;5072240;28;20083;-62
2022/03/31 12:27:52;;;;;;;16.25;10.60;;;;;;;;;;5072910;28;20068;-62
2022/03/31 12:30:18;;;;;;;19.50;11.75;;;;;;;;;;5047788;28;20146;-62
2022/03/31 12:32:49;;;;;;;18.23;10.70;;;;;;;;;;5073039;28;20037;-62
2022/03/31 12:35:15;;;;;;;22.03;12.97;;;;;;;;;;5070522;28;20045;-62
2022/03/31 12:37:48;;;;;;;23.42;13.60;;;;;;;;;;5066979;28;20413;-62
2022/03/31 12:40:15;;;;;;;22.45;13.50;;;;;;;;;;5072059;28;20394;-62
2022/03/31 12:42:51;;;;;;;24.15;14.68;;;;;;;;;;5061031;28;20029;-62
2022/03/31 12:45:17;;;;;;;30.13;16.23;;;;;;;;;;5066238;28;20075;-62
2022/03/31 12:47:45;;;;;;;25.13;14.73;;;;;;;;;;5071536;28;20041;-62
2022/03/31 12:50:15;;;;;;;25.80;15.05;;;;;;;;;;5068136;28;20472;-62
2022/03/31 12:52:51;;;;;;;26.90;15.88;;;;;;;;;;5063498;28;20032;-62
2022/03/31 12:55:17;;;;;;;24.95;14.82;;;;;;;;;;5069775;28;20043;-60
2022/03/31 12:57:54;;;;;;;27.80;15.38;;;;;;;;;;5074879;28;20067;-60
2022/03/31 13:00:21;;;;;;;30.63;16.48;;;;;;;;;;5070214;28;20040;-60
2022/03/31 13:02:48;;;;;;;36.63;18.90;;;;;;;;;;5064057;28;20053;-60
2022/03/31 13:05:24;;;;;;;34.67;18.48;;;;;;;;;;5069304;28;20041;-60
2022/03/31 13:07:52;;;;;;;34.47;19.40;;;;;;;;;;5072074;28;20040;-60
2022/03/31 13:10:18;;;;;;;36.78;19.13;;;;;;;;;;5068748;28;20040;-59
2022/03/31 13:12:44;;;;;;;33.80;18.88;;;;;;;;;;5064593;28;20036;-60
2022/03/31 13:15:12;;;;;;;36.20;19.35;;;;;;;;;;5072275;28;20040;-60
2022/03/31 13:17:38;;;;;;;35.28;20.17;;;;;;;;;;5072049;28;20043;-60
2022/03/31 13:20:05;;;;;;;30.63;18.02;;;;;;;;;;5065629;28;20059;-60
2022/03/31 13:22:31;;;;;;;31.23;16.42;;;;;;;;;;5066016;28;20475;-60
2022/03/31 13:24:57;;;;;;;35.53;20.13;;;;;;;;;;5070177;28;20675;-60
2022/03/31 13:27:24;;;;;;;30.20;17.55;;;;;;;;;;5069790;28;20505;-61
2022/03/31 13:29:50;;;;;;;33.17;18.50;;;;;;;;;;5067086;28;20044;-60
2022/03/31 13:32:17;;;;;;;33.97;20.17;;;;;;;;;;5070304;28;20498;-60
2022/03/31 13:34:46;;;;;;;33.17;19.70;;;;;;;;;;5071160;28;20490;-60
2022/03/31 13:37:13;;;;;;;31.15;19.27;;;;;;;;;;5071861;28;20040;-60
2022/03/31 13:39:39;;;;;;;33.72;21.13;;;;;;;;;;5068459;28;20063;-60
2022/03/31 13:42:06;;;;;;;29.10;18.38;;;;;;;;;;5071700;28;20066;-60
2022/03/31 13:44:32;;;;;;;34.25;19.83;;;;;;;;;;5069497;28;20036;-60
2022/03/31 13:46:59;;;;;;;32.38;18.42;;;;;;;;;;5044197;28;20076;-60
2022/03/31 13:49:25;;;;;;;23.77;15.32;;;;;;;;;;5065636;28;20047;-60
2022/03/31 13:51:52;;;;;;;29.88;17.50;;;;;;;;;;5070835;28;20409;-60
2022/03/31 13:54:19;;;;;;;26.85;16.98;;;;;;;;;;5061411;28;20109;-60
2022/03/31 13:56:46;;;;;;;25.33;15.68;;;;;;;;;;5062580;28;20146;-60
2022/03/31 14:02:16;;;;;;;27.85;16.70;;;;;;;;;;4956922;28;20055;-60
2022/03/31 14:04:42;;;;;;;25.70;15.40;;;;;;;;;;5051376;28;20059;-61
2022/03/31 14:07:08;;;;;;;24.38;15.52;;;;;;;;;;5070698;28;20044;-60
2022/03/31 14:09:36;;;;;;;27.35;16.27;;;;;;;;;;5070549;28;20524;-60
2022/03/31 14:12:02;;;;;;;27.55;17.55;;;;;;;;;;5070670;28;20482;-60
2022/03/31 14:14:28;;;;;;;23.75;14.05;;;;;;;;;;5062160;28;20090;-60
2022/03/31 14:16:55;;;;;;;25.45;15.60;;;;;;;;;;5071047;28;20067;-60
2022/03/31 14:19:23;;;;;;;21.95;13.35;;;;;;;;;;5069025;28;20087;-60
2022/03/31 14:21:49;;;;;;;29.35;15.60;;;;;;;;;;5068627;28;20037;-60
2022/03/31 14:24:16;;;;;;;21.77;14.18;;;;;;;;;;5071232;28;20044;-60
2022/03/31 14:26:42;;;;;;;26.08;14.63;;;;;;;;;;5070158;28;20490;-61
2022/03/31 14:29:10;;;;;;;23.20;13.90;;;;;;;;;;5069236;28;20502;-61
2022/03/31 14:31:37;;;;;;;22.85;13.55;;;;;;;;;;5063043;28;20048;-61
2022/03/31 14:34:04;;;;;;;19.63;13.18;;;;;;;;;;5070416;28;20066;-61
2022/03/31 14:36:30;;;;;;;22.17;13.70;;;;;;;;;;5071545;28;20036;-61
2022/03/31 14:38:58;;;;;;;20.73;13.07;;;;;;;;;;5068572;28;20059;-61
2022/03/31 14:41:24;;;;;;;20.45;13.63;;;;;;;;;;5068443;28;20037;-61
2022/03/31 14:43:52;;;;;;;19.63;12.27;;;;;;;;;;5071404;28;20029;-61
2022/03/31 14:46:19;;;;;;;21.23;14.55;;;;;;;;;;5070511;28;20051;-61
2022/03/31 14:48:46;;;;;;;22.02;14.32;;;;;;;;;;5069155;28;20120;-61
2022/03/31 14:51:13;;;;;;;22.58;13.95;;;;;;;;;;5070712;28;20050;-61
2022/03/31 14:53:39;;;;;;;17.30;13.15;;;;;;;;;;5070453;28;20476;-61